createdAt,value
2022-10-05T00:01:01.632Z,8.50
2022-10-05T00:03:36.848Z,8.51
2022-10-05T00:06:12.350Z,8.54
2022-10-05T00:08:45.262Z,8.57
2022-10-05T00:11:19.292Z,8.61
2022-10-05T00:13:53.088Z,8.63
2022-10-05T00:16:26.146Z,8.63
2022-10-05T00:19:00.361Z,8.62
2022-10-05T00:21:34.807Z,8.63
2022-10-05T00:24:10.545Z,8.63
2022-10-05T00:26:43.525Z,8.61
2022-10-05T00:29:23.366Z,8.60
2022-10-05T00:31:56.618Z,8.58
2022-10-05T00:34:30.678Z,8.55
2022-10-05T00:37:05.925Z,8.51
2022-10-05T00:39:41.518Z,8.51
2022-10-05T00:42:43.534Z,8.49
2022-10-05T00:45:27.638Z,8.50
2022-10-05T00:48:26.353Z,8.48
2022-10-05T00:51:18.614Z,8.49
2022-10-05T00:54:18.220Z,8.48
2022-10-05T00:57:20.292Z,8.43
2022-10-05T01:00:15.889Z,8.43
2022-10-05T01:03:06.220Z,8.44
2022-10-05T01:05:52.291Z,8.45
2022-10-05T01:09:01.168Z,8.44
2022-10-05T01:12:00.751Z,8.48
2022-10-05T01:14:56.887Z,8.51
2022-10-05T01:17:46.769Z,8.51
2022-10-05T01:20:25.007Z,8.51
2022-10-05T01:23:27.694Z,8.51
2022-10-05T01:26:38.873Z,8.54
2022-10-05T01:29:37.734Z,8.51
2022-10-05T01:32:37.887Z,8.45
2022-10-05T01:35:50.364Z,8.42
2022-10-05T01:38:49.297Z,8.44
2022-10-05T01:41:59.052Z,8.46
2022-10-05T01:44:36.625Z,8.49
2022-10-05T01:47:28.897Z,8.52
2022-10-05T01:50:33.340Z,8.52
2022-10-05T01:53:30.095Z,8.50
2022-10-05T01:56:32.608Z,8.49
2022-10-05T01:59:22.110Z,8.45
2022-10-05T02:02:00.455Z,8.46
2022-10-05T02:05:01.600Z,8.46
2022-10-05T02:07:27.531Z,8.45
2022-10-05T02:10:15.058Z,8.42
2022-10-05T02:12:50.447Z,8.41
2022-10-05T02:15:28.431Z,8.43
2022-10-05T02:18:06.063Z,8.46
2022-10-05T02:20:41.616Z,8.48
2022-10-05T02:23:19.269Z,8.49
2022-10-05T02:25:54.232Z,8.50
2022-10-05T02:28:49.774Z,8.49
2022-10-05T02:31:48.097Z,8.46
2022-10-05T02:34:40.056Z,8.45
2022-10-05T02:37:55.265Z,8.43
2022-10-05T02:40:45.199Z,8.41
2022-10-05T02:43:41.771Z,8.38
2022-10-05T02:46:34.548Z,8.34
2022-10-05T02:49:41.866Z,8.32
2022-10-05T02:52:31.831Z,8.30
2022-10-05T02:55:10.630Z,8.26
2022-10-05T02:58:15.408Z,8.26
2022-10-05T03:01:21.844Z,8.26
2022-10-05T03:04:15.250Z,8.25
2022-10-05T03:07:19.321Z,8.25
2022-10-05T03:10:40.150Z,8.24
2022-10-05T03:13:29.554Z,8.21
2022-10-05T03:16:22.236Z,8.19
2022-10-05T03:19:23.606Z,8.15
2022-10-05T03:22:07.589Z,8.17
2022-10-05T03:25:08.385Z,8.19
2022-10-05T03:28:21.190Z,8.20
2022-10-05T03:31:07.659Z,8.21
2022-10-05T03:34:09.932Z,8.20
2022-10-05T03:36:58.458Z,8.20
2022-10-05T03:39:41.917Z,8.20
2022-10-05T03:42:34.406Z,8.21
2022-10-05T03:45:31.245Z,8.21
2022-10-05T03:48:15.750Z,8.19
2022-10-05T03:51:15.919Z,8.15
2022-10-05T03:53:58.898Z,8.14
2022-10-05T03:56:49.497Z,8.15
2022-10-05T03:59:32.801Z,8.14
2022-10-05T04:02:08.756Z,8.18
2022-10-05T04:04:52.477Z,8.20
2022-10-05T04:07:47.705Z,8.22
2022-10-05T04:10:29.181Z,8.25
2022-10-05T04:13:16.318Z,8.24
2022-10-05T04:16:03.539Z,8.19
2022-10-05T04:18:46.882Z,8.18
2022-10-05T04:21:51.734Z,8.19
2022-10-05T04:24:36.618Z,8.22
2022-10-05T04:27:22.887Z,8.21
2022-10-05T04:30:16.596Z,8.21
2022-10-05T04:32:58.467Z,8.27
2022-10-05T04:35:57.709Z,8.27
2022-10-05T04:39:05.510Z,8.27
2022-10-05T04:42:08.810Z,8.29
2022-10-05T04:44:59.065Z,8.31
2022-10-05T04:47:53.481Z,8.32
2022-10-05T04:50:46.198Z,8.41
2022-10-05T04:53:35.335Z,8.48
2022-10-05T04:56:31.195Z,8.59
2022-10-05T04:59:31.227Z,8.68
2022-10-05T05:02:28.737Z,8.76
2022-10-05T05:05:34.596Z,8.85
2022-10-05T05:08:36.559Z,8.96
2022-10-05T05:11:35.664Z,9.07
2022-10-05T05:14:30.911Z,9.14
2022-10-05T05:17:34.136Z,9.25
2022-10-05T05:20:44.191Z,9.36
2022-10-05T05:23:44.587Z,9.46
2022-10-05T05:26:27.839Z,9.57
2022-10-05T05:29:11.483Z,9.68
2022-10-05T05:32:04.234Z,9.79
2022-10-05T05:35:09.329Z,9.86
2022-10-05T05:38:07.998Z,9.96
2022-10-05T05:40:53.174Z,10.02
2022-10-05T05:43:38.910Z,10.08
2022-10-05T05:46:58.213Z,10.14
2022-10-05T05:49:32.421Z,10.23
2022-10-05T05:52:15.785Z,10.31
2022-10-05T05:54:53.913Z,10.40
2022-10-05T05:57:37.673Z,10.45
2022-10-05T06:00:21.999Z,10.50
2022-10-05T06:03:38.946Z,10.56
2022-10-05T06:06:17.393Z,10.59
2022-10-05T06:09:10.440Z,10.67
2022-10-05T06:11:57.352Z,10.73
2022-10-05T06:15:01.916Z,10.78
2022-10-05T06:17:48.674Z,10.86
2022-10-05T06:20:52.706Z,10.96
2022-10-05T06:23:38.830Z,11.03
2022-10-05T06:26:28.401Z,11.10
2022-10-05T06:29:05.479Z,11.16
2022-10-05T06:31:45.749Z,11.26
2022-10-05T06:34:50.517Z,11.34
2022-10-05T06:37:58.083Z,11.40
2022-10-05T06:41:07.110Z,11.49
2022-10-05T06:44:09.370Z,11.55
2022-10-05T06:47:11.209Z,11.65
2022-10-05T06:50:21.771Z,11.75
2022-10-05T06:53:18.639Z,11.81
2022-10-05T06:56:08.554Z,11.87
2022-10-05T06:58:52.308Z,11.94
2022-10-05T07:01:58.866Z,12.00
2022-10-05T07:05:04.315Z,12.03
2022-10-05T07:08:02.360Z,12.08
2022-10-05T07:10:59.457Z,12.16
2022-10-05T07:14:07.750Z,12.21
2022-10-05T07:17:07.687Z,12.26
2022-10-05T07:19:55.099Z,12.34
2022-10-05T07:22:44.805Z,12.44
2022-10-05T07:25:44.283Z,12.52
2022-10-05T07:28:40.638Z,12.60
2022-10-05T07:31:42.696Z,12.66
2022-10-05T07:34:49.747Z,12.72
2022-10-05T07:37:54.019Z,12.77
2022-10-05T07:40:33.265Z,12.82
2022-10-05T07:44:00.948Z,12.87
2022-10-05T07:46:27.182Z,12.94
2022-10-05T07:49:35.824Z,13.00
2022-10-05T07:52:34.348Z,13.10
2022-10-05T07:55:06.494Z,13.15
2022-10-05T07:58:07.218Z,13.19
2022-10-05T08:00:59.176Z,13.21
2022-10-05T08:03:58.187Z,13.24
2022-10-05T08:06:55.128Z,13.25
2022-10-05T08:09:55.240Z,13.30
2022-10-05T08:12:41.205Z,13.34
2022-10-05T08:15:21.033Z,13.37
2022-10-05T08:18:19.693Z,13.41
2022-10-05T08:20:56.267Z,13.46
2022-10-05T08:23:39.092Z,13.51
2022-10-05T08:26:37.896Z,13.59
2022-10-05T08:29:50.391Z,13.62
2022-10-05T08:32:30.653Z,13.68
2022-10-05T08:35:34.209Z,13.73
2022-10-05T08:38:18.839Z,13.78
2022-10-05T08:40:57.043Z,13.82
2022-10-05T08:44:12.099Z,13.85
2022-10-05T08:47:07.250Z,13.86
2022-10-05T08:50:04.209Z,13.91
2022-10-05T08:53:16.854Z,13.98
2022-10-05T08:56:38.795Z,14.02
2022-10-05T08:59:38.487Z,14.03
2022-10-05T09:02:32.651Z,14.07
2022-10-05T09:05:31.660Z,14.13
2022-10-05T09:08:51.648Z,14.19
2022-10-05T09:12:00.182Z,14.22
2022-10-05T09:14:56.626Z,14.26
2022-10-05T09:17:39.434Z,14.29
2022-10-05T09:20:32.609Z,14.35
2022-10-05T09:23:37.364Z,14.41
2022-10-05T09:26:31.956Z,14.44
2022-10-05T09:29:20.868Z,14.51
2022-10-05T09:32:16.366Z,14.55
2022-10-05T09:35:16.860Z,14.58
2022-10-05T09:38:16.975Z,14.60
2022-10-05T09:41:06.622Z,14.66
2022-10-05T09:44:17.210Z,14.71
2022-10-05T09:47:17.067Z,14.76
2022-10-05T09:50:00.402Z,14.76
2022-10-05T09:53:02.331Z,14.77
2022-10-05T09:56:05.560Z,14.78
2022-10-05T09:58:58.434Z,14.83
2022-10-05T10:02:10.143Z,14.92
2022-10-05T10:05:06.088Z,15.01
2022-10-05T10:08:29.110Z,15.08
2022-10-05T10:11:32.720Z,15.14
2022-10-05T10:14:25.218Z,15.22
2022-10-05T10:17:11.430Z,15.26
2022-10-05T10:20:04.550Z,15.28
2022-10-05T10:23:03.594Z,15.25
2022-10-05T10:25:46.976Z,15.17
2022-10-05T10:28:53.435Z,15.10
2022-10-05T10:31:53.774Z,15.08
2022-10-05T10:35:04.383Z,15.08
2022-10-05T10:37:43.293Z,15.15
2022-10-05T10:40:35.964Z,15.23
2022-10-05T10:43:53.233Z,15.30
2022-10-05T10:46:49.394Z,15.38
2022-10-05T10:49:36.522Z,15.42
2022-10-05T10:52:29.011Z,15.43
2022-10-05T10:55:31.134Z,15.45
2022-10-05T10:58:12.353Z,15.50
2022-10-05T11:01:08.477Z,15.51
2022-10-05T11:04:01.349Z,15.52
2022-10-05T11:06:54.555Z,15.51
2022-10-05T11:09:46.738Z,15.49
2022-10-05T11:13:02.971Z,15.49
2022-10-05T11:15:58.831Z,15.49
2022-10-05T11:18:54.383Z,15.47
2022-10-05T11:21:32.221Z,15.47
2022-10-05T11:24:23.944Z,15.51
2022-10-05T11:27:08.608Z,15.56
2022-10-05T11:30:11.640Z,15.61
2022-10-05T11:33:10.035Z,15.66
2022-10-05T11:36:09.431Z,15.71
2022-10-05T11:38:59.620Z,15.73
2022-10-05T11:42:09.476Z,15.79
2022-10-05T11:45:25.458Z,15.86
2022-10-05T11:48:31.434Z,15.92
2022-10-05T11:51:28.713Z,15.96
2022-10-05T11:54:08.418Z,15.92
2022-10-05T11:56:57.151Z,15.89
2022-10-05T11:59:46.318Z,15.88
2022-10-05T12:02:48.224Z,15.84
2022-10-05T12:05:51.608Z,15.83
2022-10-05T12:08:38.506Z,15.80
2022-10-05T12:11:32.747Z,15.78
2022-10-05T12:14:16.655Z,15.81
2022-10-05T12:17:28.698Z,15.81
2022-10-05T12:20:28.902Z,15.82
2022-10-05T12:23:18.126Z,15.84
2022-10-05T12:26:06.781Z,15.89
2022-10-05T12:29:08.988Z,15.93
2022-10-05T12:31:49.450Z,15.92
2022-10-05T12:34:44.802Z,15.91
2022-10-05T12:37:40.659Z,15.88
2022-10-05T12:40:46.959Z,15.84
2022-10-05T12:43:51.281Z,15.78
2022-10-05T12:46:35.024Z,15.70
2022-10-05T12:49:27.187Z,15.63
2022-10-05T12:52:02.388Z,15.59
2022-10-05T12:55:01.879Z,15.56
2022-10-05T12:57:46.181Z,15.52
2022-10-05T13:00:23.200Z,15.49
2022-10-05T13:03:03.473Z,15.51
2022-10-05T13:05:45.065Z,15.53
2022-10-05T13:08:53.365Z,15.55
2022-10-05T13:11:45.901Z,15.54
2022-10-05T13:14:46.175Z,15.50
2022-10-05T13:17:35.495Z,15.48
2022-10-05T13:20:28.438Z,15.46
2022-10-05T13:23:37.953Z,15.43
2022-10-05T13:26:18.602Z,15.39
2022-10-05T13:29:33.609Z,15.35
2022-10-05T13:32:10.565Z,15.33
2022-10-05T13:35:11.269Z,15.30
2022-10-05T13:38:01.943Z,15.28
2022-10-05T13:40:39.437Z,15.24
2022-10-05T13:43:39.704Z,15.22
2022-10-05T13:46:33.388Z,15.20
2022-10-05T13:49:32.817Z,15.17
2022-10-05T13:52:54.741Z,15.14
2022-10-05T13:55:52.862Z,15.11
2022-10-05T13:58:39.235Z,15.07
2022-10-05T14:01:37.756Z,15.05
2022-10-05T14:04:46.196Z,15.02
2022-10-05T14:08:05.248Z,14.98
2022-10-05T14:10:44.751Z,14.93
2022-10-05T14:13:37.344Z,14.88
2022-10-05T14:16:26.967Z,14.84
2022-10-05T14:19:07.187Z,14.82
2022-10-05T14:22:08.965Z,14.78
2022-10-05T14:25:10.384Z,14.74
2022-10-05T14:28:32.037Z,14.70
2022-10-05T14:31:17.564Z,14.65
2022-10-05T14:33:51.381Z,14.59
2022-10-05T14:36:40.259Z,14.54
2022-10-05T14:39:15.160Z,14.49
2022-10-05T14:41:50.901Z,14.44
2022-10-05T14:44:35.103Z,14.39
2022-10-05T14:47:23.627Z,14.33
2022-10-05T14:50:13.778Z,14.25
2022-10-05T14:53:08.552Z,14.17
2022-10-05T14:56:19.446Z,14.09
2022-10-05T14:59:23.561Z,14.03
2022-10-05T15:02:17.833Z,13.94
2022-10-05T15:05:03.940Z,13.85
2022-10-05T15:07:48.478Z,13.79
2022-10-05T15:10:35.918Z,13.72
2022-10-05T15:13:21.918Z,13.66
2022-10-05T15:16:05.928Z,13.59
2022-10-05T15:18:53.143Z,13.56
2022-10-05T15:21:54.334Z,13.50
2022-10-05T15:24:32.128Z,13.47
2022-10-05T15:27:06.888Z,13.43
2022-10-05T15:30:08.085Z,13.42
2022-10-05T15:33:00.458Z,13.40
2022-10-05T15:35:43.712Z,13.39
2022-10-05T15:38:26.029Z,13.39
2022-10-05T15:41:18.881Z,13.38
2022-10-05T15:44:06.132Z,13.37
2022-10-05T15:46:48.170Z,13.37
2022-10-05T15:49:33.172Z,13.40
2022-10-05T15:52:24.073Z,13.40
2022-10-05T15:55:27.852Z,13.42
2022-10-05T15:58:38.937Z,13.42
2022-10-05T16:01:34.237Z,13.38
2022-10-05T16:04:40.654Z,13.36
2022-10-05T16:07:36.192Z,13.35
2022-10-05T16:10:24.402Z,13.30
2022-10-05T16:13:27.300Z,13.26
2022-10-05T16:16:26.249Z,13.21
2022-10-05T16:19:12.823Z,13.16
2022-10-05T16:22:08.430Z,13.12
2022-10-05T16:25:10.292Z,13.10
2022-10-05T16:27:48.224Z,13.09
2022-10-05T16:30:24.410Z,13.09
2022-10-05T16:33:30.698Z,13.09
2022-10-05T16:36:25.641Z,13.08
2022-10-05T16:39:29.307Z,13.07
2022-10-05T16:42:14.532Z,13.05
2022-10-05T16:45:09.822Z,13.06
2022-10-05T16:48:27.651Z,13.07
2022-10-05T16:51:37.869Z,13.09
2022-10-05T16:54:31.875Z,13.07
2022-10-05T16:57:21.738Z,13.03
2022-10-05T17:00:28.855Z,13.01
2022-10-05T17:03:18.511Z,13.02
2022-10-05T17:06:22.367Z,13.03
2022-10-05T17:09:06.967Z,13.05
2022-10-05T17:12:16.310Z,13.05
2022-10-05T17:14:59.947Z,13.02
2022-10-05T17:18:15.024Z,12.98
2022-10-05T17:21:05.528Z,12.94
2022-10-05T17:23:54.788Z,12.90
2022-10-05T17:26:54.870Z,12.90
2022-10-05T17:29:52.212Z,12.87
2022-10-05T17:32:37.488Z,12.88
2022-10-05T17:35:18.803Z,12.87
2022-10-05T17:38:35.423Z,12.86
2022-10-05T17:41:28.508Z,12.83
2022-10-05T17:44:24.691Z,12.78
2022-10-05T17:47:04.117Z,12.72
2022-10-05T17:50:13.759Z,12.65
2022-10-05T17:53:05.822Z,12.63
2022-10-05T17:55:46.345Z,12.59
2022-10-05T17:58:32.840Z,12.62
2022-10-05T18:01:17.387Z,12.62
2022-10-05T18:03:52.639Z,12.61
2022-10-05T18:06:34.250Z,12.60
2022-10-05T18:09:23.571Z,12.58
2022-10-05T18:12:26.035Z,12.55
2022-10-05T18:15:08.405Z,12.51
2022-10-05T18:17:51.790Z,12.48
2022-10-05T18:20:31.877Z,12.43
2022-10-05T18:23:13.249Z,12.39
2022-10-05T18:26:12.627Z,12.36
2022-10-05T18:29:49.680Z,12.29
2022-10-05T18:32:53.638Z,12.24
2022-10-05T18:36:09.081Z,12.15
2022-10-05T18:39:05.209Z,12.13
2022-10-05T18:42:20.744Z,12.12
2022-10-05T18:45:30.236Z,12.09
2022-10-05T18:48:30.358Z,12.01
2022-10-05T18:51:35.832Z,11.92
2022-10-05T18:54:24.051Z,11.87
2022-10-05T18:56:57.523Z,11.81
2022-10-05T18:59:46.670Z,11.76
2022-10-05T19:02:51.581Z,11.72
2022-10-05T19:05:49.922Z,11.69
2022-10-05T19:08:54.480Z,11.66
2022-10-05T19:11:44.004Z,11.63
2022-10-05T19:14:46.020Z,11.59
2022-10-05T19:17:28.921Z,11.57
2022-10-05T19:20:26.098Z,11.58
2022-10-05T19:23:28.875Z,11.56
2022-10-05T19:26:16.387Z,11.53
2022-10-05T19:29:07.392Z,11.51
2022-10-05T19:32:03.135Z,11.50
2022-10-05T19:34:50.737Z,11.49
2022-10-05T19:37:34.174Z,11.48
2022-10-05T19:40:33.868Z,11.47
2022-10-05T19:43:38.897Z,11.45
2022-10-05T19:46:38.017Z,11.43
2022-10-05T19:49:12.152Z,11.40
2022-10-05T19:51:52.593Z,11.37
2022-10-05T19:54:29.679Z,11.34
2022-10-05T19:57:03.194Z,11.32
2022-10-05T19:59:37.973Z,11.28
2022-10-05T20:02:13.212Z,11.28
2022-10-05T20:04:49.818Z,11.25
2022-10-05T20:07:23.895Z,11.23
2022-10-05T20:10:27.283Z,11.17
2022-10-05T20:13:07.680Z,11.12
2022-10-05T20:15:59.135Z,11.07
2022-10-05T20:19:03.079Z,11.05
2022-10-05T20:21:51.367Z,11.03
2022-10-05T20:24:29.688Z,10.97
2022-10-05T20:27:06.032Z,10.95
2022-10-05T20:29:44.347Z,10.91
2022-10-05T20:32:19.043Z,10.86
2022-10-05T20:34:52.835Z,10.83
2022-10-05T20:37:26.578Z,10.79
2022-10-05T20:39:59.515Z,10.75
2022-10-05T20:42:33.274Z,10.75
2022-10-05T20:45:07.735Z,10.76
2022-10-05T20:47:42.435Z,10.75
2022-10-05T20:50:16.488Z,10.73
2022-10-05T20:52:50.069Z,10.68
2022-10-05T20:55:23.058Z,10.66
2022-10-05T20:57:57.021Z,10.63
2022-10-05T21:00:34.047Z,10.62
2022-10-05T21:03:06.490Z,10.59
2022-10-05T21:05:39.693Z,10.58
2022-10-05T21:08:12.763Z,10.56
2022-10-05T21:10:45.818Z,10.54
2022-10-05T21:13:18.893Z,10.52
2022-10-05T21:15:51.810Z,10.53
2022-10-05T21:18:25.293Z,10.52
2022-10-05T21:21:02.088Z,10.54
2022-10-05T21:23:36.310Z,10.55
2022-10-05T21:26:09.315Z,10.54
2022-10-05T21:28:43.134Z,10.54
2022-10-05T21:31:15.874Z,10.54
2022-10-05T21:33:48.913Z,10.55
2022-10-05T21:36:24.754Z,10.55
2022-10-05T21:38:58.058Z,10.55
2022-10-05T21:41:30.923Z,10.53
2022-10-05T21:44:04.444Z,10.49
2022-10-05T21:46:38.055Z,10.44
2022-10-05T21:49:11.186Z,10.40
2022-10-05T21:51:45.090Z,10.34
2022-10-05T21:54:21.089Z,10.32
2022-10-05T21:56:56.091Z,10.32
2022-10-05T21:59:32.733Z,10.32
2022-10-05T22:02:06.263Z,10.34
2022-10-05T22:04:39.008Z,10.31
2022-10-05T22:07:20.302Z,10.29
2022-10-05T22:09:53.793Z,10.28
2022-10-05T22:12:27.005Z,10.26
2022-10-05T22:15:00.264Z,10.27
2022-10-05T22:17:33.561Z,10.27
2022-10-05T22:20:07.914Z,10.27
2022-10-05T22:22:40.900Z,10.24
2022-10-05T22:25:14.416Z,10.23
2022-10-05T22:27:47.438Z,10.21
2022-10-05T22:30:20.528Z,10.20
2022-10-05T22:32:53.813Z,10.16
2022-10-05T22:35:27.034Z,10.08
2022-10-05T22:37:59.667Z,10.04
2022-10-05T22:40:32.659Z,10.03
2022-10-05T22:43:06.035Z,10.02
2022-10-05T22:45:38.890Z,10.01
2022-10-05T22:48:12.313Z,10.00
2022-10-05T22:50:49.580Z,9.98
2022-10-05T22:53:22.872Z,10.01
2022-10-05T22:55:55.830Z,9.97
2022-10-05T22:58:29.392Z,9.93
2022-10-05T23:01:08.777Z,9.88
2022-10-05T23:03:42.302Z,9.87
2022-10-05T23:06:21.459Z,9.86
2022-10-05T23:08:55.338Z,9.86
2022-10-05T23:11:31.650Z,9.88
2022-10-05T23:14:04.387Z,9.87
2022-10-05T23:16:37.393Z,9.86
2022-10-05T23:19:12.636Z,9.84
2022-10-05T23:21:46.088Z,9.81
2022-10-05T23:24:19.514Z,9.76
2022-10-05T23:26:52.390Z,9.73
2022-10-05T23:29:25.205Z,9.72
2022-10-05T23:31:58.550Z,9.70
2022-10-05T23:34:31.547Z,9.68
2022-10-05T23:37:04.568Z,9.66
2022-10-05T23:39:37.593Z,9.65
2022-10-05T23:42:10.841Z,9.63
2022-10-05T23:44:43.674Z,9.63
2022-10-05T23:47:16.995Z,9.65
2022-10-05T23:49:49.844Z,9.66
2022-10-05T23:52:23.260Z,9.67
2022-10-05T23:54:56.535Z,9.66
2022-10-05T23:57:29.559Z,9.66
